Omaha, NE (68142)

3:54 AM CDT on May 29, 2015 (GMT -0500)
Douglas County | | Change Station
CLOSE
Current Station
Personal Weather Station
Location: Omaha, NE
Elevation: 1132 ft
Nearby Weather Stations

Elev 1132 ft 41.34 °N, 96.11 °W | Updated 4 minutes ago

Mostly Cloudy
Mostly Cloudy
65.4 °F
Feels Like 65.4 °F
N
0.0
Wind Variable Wind from SSW
Gusts 3.0 mph

Today
High -- | Low -- °F
--% Chance of Precip.
Yesterday
High -- | Low -- °F
Precip. -- in
5:55 AM 8:48 PM
Waxing Gibbous, 82% visible
Pressure 29.90 in
Visibility 10.0 miles
Clouds Scattered Clouds 1100 ft
Mostly Cloudy 1600 ft
Mostly Cloudy 8500 ft
Dew Point 63 °F
Humidity 92%
Rainfall 0.00 in
Snow Depth Not available.
UV 0 out of 12
Pollen 5.30 out of 12
Air Quality Not available.
Flu Activity No Activity
METAR KBTA 290835Z AUTO 24004KT 10SM SCT011 BKN016 BKN085 19/17 A2990 RMK AO2 T01850165

More Conditions Fewer Conditions

Pressure 29.90 in
Visibility 10.0 miles
Clouds Scattered Clouds 1100 ft
Mostly Cloudy 1600 ft
Mostly Cloudy 8500 ft
Dew Point 63 °F
Humidity 92%
Rainfall 0.00 in
Snow Depth Not available.
UV 0 out of 12
Pollen 5.30 out of 12
Air Quality Not available.
Flu Activity No Activity
METAR KBTA 290835Z AUTO 24004KT 10SM SCT011 BKN016 BKN085 19/17 A2990 RMK AO2 T01850165

More Conditions Fewer Conditions

10-Day Weather Forecast

Almanac

Astronomy

May. 29, 2015 Rise Set
Actual Time
Civil Twilight
Nautical Twilight
Astronomical Twilight
Moon
Length of Visible Light
Length of Day
Tomorrow will be .
, % of the Moon is Illuminated

Today's Extremes

State Highs State Lows

Community

WunderPhotos

Upload Photos

1,825,221 photos uploaded!

WunderBlogs® & News

Nearby

Air Quality

  Air Quality AQ Index Pollutant
Not available.

Snow Depth

Station Depth Elevation

Earthquake Activity

City Distance Mag. Time & Date
Minimum magnitude displayed is 2.5.

Coastal Water Temperatures

Place Temperature

Stations

Nearby Weather Stations

Station Location Temp. Windchill Dew Point Humidity Wind Precip. Elev Updated Type